Time;durP1;ratioP1;P1;durP2;ratioP2;P2;SDS_P1;SDS_P2;PMS_P1;PMS_P2;Temp;Humidity;BMP_temperature;BMP_pressure;BME280_temperature;BME280_humidity;BME280_pressure;Samples;Min_cycle;Max_cycle;Signal;HPM_P1;HPM_P2
2023/01/17 00:02:08;;;;;;;5.78;1.77;;;4.00;99.90;;;;;;5091670;28;20062;-57
2023/01/17 00:10:08;;;;;;;3.88;0.50;;;4.00;99.90;;;;;;5087110;28;20055;-58
2023/01/17 00:12:34;;;;;;;2.22;0.60;;;4.00;99.90;;;;;;5094047;28;20071;-59
2023/01/17 00:15:06;;;;;;;6.63;1.27;;;3.90;99.90;;;;;;5088185;28;20040;-58
2023/01/17 00:17:32;;;;;;;3.53;1.08;;;3.90;99.90;;;;;;5096756;28;20036;-60
2023/01/17 01:35:15;;;;;;;3.25;0.40;;;3.00;99.90;;;;;;5088929;28;20101;-58
2023/01/17 01:37:41;;;;;;;4.75;1.20;;;3.00;99.90;;;;;;5097644;28;20039;-60
2023/01/17 01:40:07;;;;;;;2.88;0.55;;;2.90;99.90;;;;;;5069233;28;20354;-60
2023/01/17 01:42:33;;;;;;;3.22;1.00;;;2.90;99.90;;;;;;5086795;28;20040;-57
2023/01/17 01:44:58;;;;;;;5.97;1.08;;;2.90;99.90;;;;;;5068366;28;20048;-60
2023/01/17 01:47:39;;;;;;;1.88;0.55;;;2.80;99.90;;;;;;5084402;28;20032;-59
2023/01/17 01:50:10;;;;;;;5.78;1.27;;;2.90;99.90;;;;;;5084290;28;20114;-58
2023/01/17 01:52:40;;;;;;;3.97;1.00;;;2.90;99.90;;;;;;5087110;28;20029;-58
2023/01/17 01:55:22;;;;;;;5.55;0.93;;;2.80;99.90;;;;;;5082793;28;20057;-57
2023/01/17 01:57:52;;;;;;;1.42;0.50;;;2.90;99.90;;;;;;5084015;28;20040;-60
2023/01/17 02:00:25;;;;;;;4.15;1.25;;;2.80;99.90;;;;;;5086920;28;20055;-58
2023/01/17 02:02:54;;;;;;;2.80;0.40;;;2.90;99.90;;;;;;5083399;28;20098;-60
2023/01/17 02:05:22;;;;;;;2.53;0.80;;;2.80;99.90;;;;;;5086909;28;20491;-58
2023/01/17 02:07:53;;;;;;;3.00;0.73;;;2.70;99.90;;;;;;5067838;28;20028;-58
2023/01/17 02:10:19;;;;;;;6.15;0.98;;;2.80;99.90;;;;;;5086658;28;20059;-63
2023/01/17 02:12:45;;;;;;;1.65;0.50;;;2.80;99.90;;;;;;5068855;28;20383;-60
2023/01/17 02:15:11;;;;;;;2.42;0.75;;;2.80;99.90;;;;;;5086006;28;20094;-60
2023/01/17 02:18:01;;;;;;;3.05;0.40;;;2.70;99.90;;;;;;5084087;28;20035;-60
2023/01/17 02:20:57;;;;;;;2.30;0.73;;;2.70;99.90;;;;;;5083657;28;20036;-59
2023/01/17 02:23:43;;;;;;;1.60;0.52;;;2.60;99.90;;;;;;5086579;28;20106;-59
2023/01/17 02:26:35;;;;;;;7.68;1.20;;;2.70;99.90;;;;;;5084164;28;20055;-60
2023/01/17 02:29:33;;;;;;;5.97;0.55;;;2.70;99.90;;;;;;5091727;28;20411;-60
2023/01/17 02:32:34;;;;;;;3.15;0.70;;;2.70;99.90;;;;;;5089715;28;20035;-61
2023/01/17 02:35:33;;;;;;;4.15;0.88;;;2.70;99.90;;;;;;5071673;28;20051;-60
2023/01/17 02:38:15;;;;;;;6.03;0.65;;;2.80;99.90;;;;;;5069514;28;20040;-59
2023/01/17 02:40:50;;;;;;;5.07;0.60;;;2.70;99.90;;;;;;5087150;28;20040;-58
2023/01/17 02:43:17;;;;;;;;;;;2.80;99.90;;;;;;5089008;28;20047;-58
2023/01/17 02:45:44;;;;;;;3.00;0.90;;;2.70;99.90;;;;;;5089354;28;19959;-58
2023/01/17 02:48:13;;;;;;;2.35;0.40;;;2.80;99.90;;;;;;5090499;28;20037;-58
2023/01/17 02:51:14;;;;;;;5.60;1.65;;;2.80;99.90;;;;;;5089935;28;20044;-60
2023/01/17 02:54:13;;;;;;;3.90;0.85;;;2.70;99.90;;;;;;5089733;28;20459;-57
2023/01/17 02:56:58;;;;;;;4.95;0.63;;;2.70;99.90;;;;;;5087672;28;20146;-60
2023/01/17 02:59:51;;;;;;;5.53;0.73;;;2.60;99.90;;;;;;5089030;28;20445;-56
2023/01/17 03:02:49;;;;;;;7.38;1.50;;;2.50;99.90;;;;;;5089661;28;20040;-58
2023/01/17 03:05:34;;;;;;;5.03;1.30;;;2.50;99.90;;;;;;5088037;28;20102;-58
2023/01/17 03:08:01;;;;;;;4.68;0.57;;;2.40;99.90;;;;;;5089476;28;20036;-58
2023/01/17 03:10:31;;;;;;;4.97;1.13;;;2.50;99.90;;;;;;5089633;28;20043;-58
2023/01/17 03:12:59;;;;;;;2.67;0.52;;;2.50;99.90;;;;;;5072511;28;20115;-60
2023/01/17 03:15:25;;;;;;;1.13;0.60;;;2.40;99.90;;;;;;5084106;28;20138;-57
2023/01/17 03:17:54;;;;;;;2.83;0.73;;;2.50;99.90;;;;;;5086752;28;20418;-57
2023/01/17 03:20:20;;;;;;;2.05;0.68;;;2.50;99.90;;;;;;5090445;28;20079;-58
2023/01/17 03:22:45;;;;;;;6.82;1.30;;;2.50;99.90;;;;;;5090910;28;20036;-58
2023/01/17 03:25:11;;;;;;;2.85;0.60;;;2.40;99.90;;;;;;5090360;28;20074;-57
2023/01/17 03:27:37;;;;;;;5.22;0.90;;;2.50;99.90;;;;;;5086988;28;20040;-59
2023/01/17 03:30:09;;;;;;;4.75;1.08;;;2.40;99.90;;;;;;5089212;28;20395;-58
2023/01/17 03:32:34;;;;;;;3.00;0.60;;;2.50;99.90;;;;;;5086599;28;20029;-56
2023/01/17 03:35:00;;;;;;;6.13;0.80;;;2.50;99.90;;;;;;5087960;28;20051;-57
2023/01/17 03:37:25;;;;;;;3.92;0.68;;;2.30;99.90;;;;;;5089226;28;20126;-58
2023/01/17 03:39:51;;;;;;;3.42;0.80;;;2.40;99.90;;;;;;5090899;28;20080;-57
2023/01/17 03:42:17;;;;;;;6.13;1.60;;;2.20;99.90;;;;;;5089200;28;20048;-55
2023/01/17 03:44:42;;;;;;;4.30;1.05;;;2.30;99.90;;;;;;5102824;28;20072;-57
2023/01/17 03:47:10;;;;;;;5.30;1.73;;;2.30;99.90;;;;;;5096495;28;20166;-57
2023/01/17 03:49:37;;;;;;;5.38;1.45;;;2.30;99.90;;;;;;5097617;28;20340;-58
2023/01/17 03:52:03;;;;;;;5.80;1.27;;;2.30;99.90;;;;;;5090913;28;20086;-58
2023/01/17 03:54:28;;;;;;;8.07;1.85;;;2.30;99.90;;;;;;5096540;28;20032;-58
2023/01/17 03:56:54;;;;;;;7.63;1.92;;;2.30;99.90;;;;;;5102117;28;20084;-57
2023/01/17 03:59:20;;;;;;;10.57;2.55;;;2.30;99.90;;;;;;5088207;28;20039;-59
2023/01/17 04:01:45;;;;;;;13.63;3.60;;;2.20;99.90;;;;;;5090794;28;20031;-58
2023/01/17 04:04:11;;;;;;;27.27;12.60;;;2.10;99.90;;;;;;5094145;28;20428;-60
2023/01/17 04:06:36;;;;;;;23.27;6.32;;;2.20;99.90;;;;;;5095914;28;20047;-57
2023/01/17 04:09:02;;;;;;;22.15;6.05;;;2.20;99.90;;;;;;5091969;28;20043;-58
2023/01/17 04:11:28;;;;;;;17.77;6.38;;;2.20;99.90;;;;;;5088850;28;20047;-58
2023/01/17 04:13:54;;;;;;;16.58;4.13;;;2.20;99.90;;;;;;5099349;28;20445;-58
2023/01/17 04:16:23;;;;;;;31.50;7.85;;;2.10;99.90;;;;;;5098518;28;20042;-60
2023/01/17 04:18:48;;;;;;;18.15;5.22;;;2.20;99.90;;;;;;5094523;28;20036;-62
2023/01/17 04:21:14;;;;;;;12.05;3.15;;;2.20;99.90;;;;;;5090157;28;20488;-58
2023/01/17 04:23:39;;;;;;;10.02;3.10;;;2.10;99.90;;;;;;5088573;28;20043;-56
2023/01/17 04:26:05;;;;;;;17.17;3.92;;;2.20;99.90;;;;;;5090743;28;20050;-62
2023/01/17 04:28:31;;;;;;;11.32;2.80;;;2.10;99.90;;;;;;5098277;28;20436;-59
2023/01/17 04:30:58;;;;;;;13.25;3.75;;;2.00;99.90;;;;;;5090582;28;20040;-58
2023/01/17 04:33:23;;;;;;;27.70;5.97;;;2.00;99.90;;;;;;5090584;28;20111;-58
2023/01/17 04:35:51;;;;;;;18.35;4.50;;;2.00;99.90;;;;;;5091312;28;20158;-60
2023/01/17 04:38:16;;;;;;;22.35;3.38;;;2.10;99.90;;;;;;5090763;28;20085;-56
2023/01/17 04:40:42;;;;;;;20.60;5.63;;;2.10;99.90;;;;;;5078934;28;20379;-60
2023/01/17 04:43:07;;;;;;;13.40;3.80;;;2.20;99.90;;;;;;5092940;28;20523;-60
2023/01/17 04:45:34;;;;;;;11.35;3.53;;;2.20;99.90;;;;;;5097333;28;20036;-57
2023/01/17 04:48:04;;;;;;;11.93;3.65;;;2.20;99.90;;;;;;5079219;28;20070;-58
2023/01/17 04:50:31;;;;;;;11.85;3.05;;;2.20;99.90;;;;;;5088348;28;20043;-61
2023/01/17 04:52:57;;;;;;;9.38;2.50;;;2.30;99.90;;;;;;5090058;28;20518;-58
2023/01/17 04:55:23;;;;;;;10.20;2.47;;;2.30;99.90;;;;;;5097094;28;20028;-58
2023/01/17 04:57:49;;;;;;;6.90;2.20;;;2.30;99.90;;;;;;5096429;28;20037;-62
2023/01/17 05:00:15;;;;;;;15.25;2.78;;;2.30;99.90;;;;;;5069031;28;20468;-60
2023/01/17 05:02:41;;;;;;;8.70;1.77;;;2.20;99.90;;;;;;5074870;28;20032;-58
2023/01/17 05:05:07;;;;;;;10.40;0.95;;;2.30;99.90;;;;;;5089534;28;20032;-60
2023/01/17 05:07:32;;;;;;;9.90;0.98;;;2.20;99.90;;;;;;5100439;28;20448;-57
2023/01/17 05:10:01;;;;;;;11.88;1.80;;;2.20;99.90;;;;;;5079835;28;20070;-58
2023/01/17 05:12:27;;;;;;;6.57;1.65;;;2.30;99.90;;;;;;5089410;28;20032;-58
2023/01/17 05:14:52;;;;;;;7.75;1.88;;;2.20;99.90;;;;;;5094951;28;20036;-56
2023/01/17 05:17:18;;;;;;;4.60;0.68;;;2.30;99.90;;;;;;5093789;28;20069;-60
2023/01/17 05:19:44;;;;;;;7.05;0.90;;;2.20;99.90;;;;;;5086707;28;20036;-57
2023/01/17 05:22:13;;;;;;;7.82;0.95;;;2.20;99.90;;;;;;5088510;28;20127;-58
2023/01/17 05:24:47;;;;;;;3.97;1.10;;;2.20;99.90;;;;;;5089834;28;20090;-60
2023/01/17 05:27:13;;;;;;;4.82;0.80;;;2.30;99.90;;;;;;5090493;28;20040;-57
2023/01/17 05:29:39;;;;;;;9.90;1.50;;;2.30;99.90;;;;;;5099514;28;20055;-60
2023/01/17 05:32:05;;;;;;;3.67;0.70;;;2.30;99.90;;;;;;5094046;28;20092;-62
2023/01/17 05:34:31;;;;;;;4.85;0.82;;;2.30;99.90;;;;;;5099683;28;20036;-57
2023/01/17 05:36:57;;;;;;;5.72;1.00;;;2.20;99.90;;;;;;5087828;28;20351;-58
2023/01/17 05:39:25;;;;;;;1.00;0.28;;;2.20;99.90;;;;;;5097508;28;20514;-57
2023/01/17 05:41:50;;;;;;;3.67;0.98;;;2.20;99.90;;;;;;5090113;28;20100;-60
2023/01/17 05:44:16;;;;;;;12.93;2.83;;;2.20;99.90;;;;;;5093083;28;20118;-59
2023/01/17 05:46:42;;;;;;;6.30;1.48;;;2.20;99.90;;;;;;5098039;28;20075;-64
2023/01/17 05:49:08;;;;;;;2.55;0.50;;;2.30;99.90;;;;;;5094087;28;20135;-59
2023/01/17 05:51:36;;;;;;;1.45;0.32;;;2.40;99.90;;;;;;5083751;28;20468;-58
2023/01/17 05:54:03;;;;;;;3.88;0.90;;;2.40;99.90;;;;;;5093118;28;20040;-58
2023/01/17 05:56:28;;;;;;;5.63;0.70;;;2.40;99.90;;;;;;5090382;28;20035;-58
2023/01/17 05:58:54;;;;;;;1.85;0.40;;;2.40;99.90;;;;;;5092657;28;20114;-58
2023/01/17 06:01:20;;;;;;;3.05;0.80;;;2.30;99.90;;;;;;5089755;28;20044;-60
2023/01/17 06:03:45;;;;;;;1.02;0.28;;;2.30;99.90;;;;;;5090728;28;20479;-62
2023/01/17 06:06:11;;;;;;;5.03;0.95;;;2.30;99.90;;;;;;5093702;28;20052;-60
2023/01/17 06:08:36;;;;;;;3.20;0.30;;;2.30;99.90;;;;;;5098310;28;20040;-56
2023/01/17 06:11:02;;;;;;;3.90;0.80;;;2.20;99.90;;;;;;5090648;28;20047;-57
2023/01/17 06:13:28;;;;;;;4.50;0.40;;;2.20;99.90;;;;;;5096997;28;20710;-61
2023/01/17 06:15:56;;;;;;;1.52;0.43;;;2.10;99.90;;;;;;5091037;28;20117;-58
2023/01/17 06:18:22;;;;;;;7.75;1.75;;;2.10;99.90;;;;;;5093386;28;20036;-58
2023/01/17 06:20:53;;;;;;;1.88;0.35;;;2.00;99.90;;;;;;5087568;28;20032;-59
2023/01/17 06:23:18;;;;;;;5.82;1.50;;;2.00;99.90;;;;;;5099328;28;20040;-63
2023/01/17 06:25:45;;;;;;;3.90;0.98;;;2.00;99.90;;;;;;5088733;28;20341;-57
2023/01/17 06:28:19;;;;;;;2.65;0.68;;;2.00;99.90;;;;;;5089610;28;20425;-58
2023/01/17 06:30:48;;;;;;;3.53;1.25;;;1.90;99.90;;;;;;5088854;28;20044;-61
2023/01/17 06:33:14;;;;;;;3.65;1.10;;;2.00;99.90;;;;;;5093612;28;20050;-58
2023/01/17 06:35:48;;;;;;;3.15;1.08;;;1.90;99.90;;;;;;5088980;28;20036;-60
2023/01/17 06:38:14;;;;;;;7.05;1.85;;;1.90;99.90;;;;;;5098676;28;20108;-62
2023/01/17 06:40:40;;;;;;;6.97;1.60;;;1.80;99.90;;;;;;5093335;28;20040;-60
2023/01/17 06:43:05;;;;;;;6.72;1.25;;;1.80;99.90;;;;;;5091480;28;20344;-61
2023/01/17 06:45:33;;;;;;;6.85;1.42;;;1.80;99.90;;;;;;5087668;28;20461;-61
2023/01/17 06:48:00;;;;;;;7.80;1.30;;;1.70;99.90;;;;;;5092441;28;20044;-60
2023/01/17 06:50:26;;;;;;;5.85;0.98;;;1.70;99.90;;;;;;5087641;28;20036;-57
2023/01/17 06:53:03;;;;;;;8.55;1.73;;;1.60;99.90;;;;;;5085915;28;20036;-58
2023/01/17 06:55:30;;;;;;;2.25;0.80;;;1.50;99.90;;;;;;5068526;28;20059;-58
2023/01/17 06:57:58;;;;;;;5.78;0.73;;;1.60;99.90;;;;;;5089166;28;20059;-58
2023/01/17 07:00:24;;;;;;;3.85;0.60;;;1.50;99.90;;;;;;5085718;28;20105;-58
2023/01/17 07:02:50;;;;;;;6.60;0.85;;;1.40;99.90;;;;;;5091585;28;20035;-58
2023/01/17 07:05:16;;;;;;;5.25;1.00;;;1.40;99.90;;;;;;5091576;28;20072;-58
2023/01/17 07:07:43;;;;;;;5.13;1.50;;;1.30;99.90;;;;;;5096030;28;20024;-58
2023/01/17 07:10:11;;;;;;;3.03;0.60;;;1.30;99.90;;;;;;5091271;28;20344;-60
2023/01/17 07:12:37;;;;;;;5.00;1.63;;;1.30;99.90;;;;;;5094047;28;20051;-58
2023/01/17 07:15:03;;;;;;;2.63;0.77;;;1.30;99.90;;;;;;5087647;28;20028;-58
2023/01/17 07:17:28;;;;;;;4.28;0.63;;;1.30;99.90;;;;;;5096263;28;20227;-60
2023/01/17 07:19:54;;;;;;;2.78;1.33;;;1.30;99.90;;;;;;5102813;28;20047;-59
2023/01/17 07:22:19;;;;;;;6.00;1.48;;;1.20;99.90;;;;;;5091694;28;20040;-58
2023/01/17 07:24:45;;;;;;;3.65;0.50;;;1.40;99.90;;;;;;5092089;28;20089;-59
2023/01/17 07:27:10;;;;;;;3.85;0.80;;;1.30;99.90;;;;;;5093408;28;20035;-57
2023/01/17 07:29:36;;;;;;;6.88;1.50;;;1.40;99.90;;;;;;5101358;28;20500;-58
2023/01/17 07:32:02;;;;;;;3.53;0.80;;;1.30;99.90;;;;;;5097401;28;20032;-58
2023/01/17 07:34:28;;;;;;;5.15;1.50;;;1.40;99.90;;;;;;5102538;28;20411;-60
2023/01/17 07:36:53;;;;;;;1.77;0.52;;;1.40;99.90;;;;;;5089347;28;20032;-57
2023/01/17 07:39:19;;;;;;;3.70;0.73;;;1.50;99.90;;;;;;5100152;28;20059;-63
2023/01/17 07:41:45;;;;;;;5.32;1.63;;;1.40;99.90;;;;;;5089442;28;20052;-57
2023/01/17 07:44:12;;;;;;;0.88;0.70;;;1.50;99.90;;;;;;5098274;28;20206;-58
2023/01/17 07:46:38;;;;;;;3.90;0.98;;;1.50;99.90;;;;;;5095883;28;20068;-58
2023/01/17 07:49:03;;;;;;;4.93;0.77;;;1.50;99.90;;;;;;5074193;28;20172;-58
2023/01/17 07:51:29;;;;;;;0.80;0.68;;;1.50;99.90;;;;;;5089925;28;20166;-58
2023/01/17 07:53:55;;;;;;;7.63;1.60;;;1.50;99.90;;;;;;5100183;28;20148;-59
2023/01/17 07:56:20;;;;;;;4.18;1.48;;;1.50;99.90;;;;;;5073666;28;20071;-60
2023/01/17 07:58:47;;;;;;;4.50;0.90;;;1.50;99.90;;;;;;5095289;28;20035;-59
2023/01/17 08:01:14;;;;;;;5.53;1.45;;;1.50;99.90;;;;;;5097573;28;20127;-56
2023/01/17 08:03:39;;;;;;;4.13;0.77;;;1.40;99.90;;;;;;5097419;28;20040;-60
2023/01/17 08:06:26;;;;;;;3.42;0.75;;;1.40;99.90;;;;;;5093918;28;20043;-57
2023/01/17 08:08:55;;;;;;;9.52;1.90;;;1.40;99.90;;;;;;5089961;28;20350;-57
2023/01/17 08:11:20;;;;;;;3.53;0.98;;;1.40;99.90;;;;;;5097201;28;20035;-60
2023/01/17 08:13:46;;;;;;;4.05;1.63;;;1.40;99.90;;;;;;5093340;28;20043;-58
2023/01/17 08:16:14;;;;;;;7.28;1.10;;;1.50;99.90;;;;;;5090068;28;20060;-60
2023/01/17 08:18:39;;;;;;;8.00;2.15;;;1.30;99.90;;;;;;5085863;28;20054;-58
2023/01/17 08:21:15;;;;;;;6.13;1.38;;;1.30;99.90;;;;;;5094774;28;20027;-59
2023/01/17 08:23:47;;;;;;;3.17;1.23;;;1.30;99.90;;;;;;5092825;28;20035;-60
2023/01/17 08:26:20;;;;;;;7.85;2.40;;;1.30;99.90;;;;;;5087312;28;20032;-61
2023/01/17 08:29:03;;;;;;;7.72;1.40;;;1.30;99.90;;;;;;5088767;28;20028;-60
2023/01/17 08:31:34;;;;;;;4.03;1.10;;;1.20;99.90;;;;;;5088709;28;20051;-61
2023/01/17 08:34:00;;;;;;;5.68;1.25;;;1.30;99.90;;;;;;5102490;28;20046;-61
2023/01/17 08:36:27;;;;;;;7.78;1.58;;;1.20;99.90;;;;;;5088387;28;20036;-60
2023/01/17 08:38:53;;;;;;;6.65;1.40;;;1.20;99.90;;;;;;5096414;28;20055;-60
2023/01/17 08:41:21;;;;;;;5.85;2.20;;;1.20;99.90;;;;;;5096453;28;20052;-60
2023/01/17 08:43:47;;;;;;;7.13;2.10;;;1.30;99.90;;;;;;5073256;28;20445;-58
2023/01/17 08:46:13;;;;;;;4.07;1.40;;;1.40;99.90;;;;;;5091216;28;20036;-58
2023/01/17 08:48:38;;;;;;;4.57;1.10;;;1.40;99.90;;;;;;5091180;28;20041;-62
2023/01/17 08:51:06;;;;;;;2.85;1.10;;;1.40;99.90;;;;;;5096390;28;20441;-58
2023/01/17 08:53:32;;;;;;;7.07;1.70;;;1.40;99.90;;;;;;5089402;28;20102;-61
2023/01/17 08:56:02;;;;;;;5.88;1.20;;;1.50;99.90;;;;;;5099302;28;20032;-59
2023/01/17 08:58:29;;;;;;;4.05;1.60;;;1.50;99.90;;;;;;5091889;28;20472;-58
2023/01/17 09:01:00;;;;;;;6.50;1.25;;;1.70;99.90;;;;;;5099492;28;20036;-60
2023/01/17 09:03:25;;;;;;;5.90;1.20;;;1.70;99.90;;;;;;5088245;28;20035;-59
2023/01/17 09:06:19;;;;;;;4.00;1.90;;;1.70;99.90;;;;;;5091438;28;20369;-58
2023/01/17 09:08:48;;;;;;;5.07;1.33;;;1.80;99.90;;;;;;5087171;28;20055;-57
2023/01/17 09:11:16;;;;;;;3.63;1.15;;;1.70;99.90;;;;;;5092584;28;20044;-58
2023/01/17 09:13:42;;;;;;;3.80;1.30;;;1.80;99.90;;;;;;5090889;28;20364;-58
2023/01/17 09:16:08;;;;;;;8.55;1.83;;;1.80;99.90;;;;;;5096990;28;20086;-60
2023/01/17 09:18:35;;;;;;;6.82;1.52;;;1.90;99.90;;;;;;5097890;28;20047;-60
2023/01/17 09:21:16;;;;;;;7.70;2.08;;;2.00;99.90;;;;;;5092619;28;20032;-59
2023/01/17 09:23:42;;;;;;;6.10;1.40;;;2.10;99.90;;;;;;5091607;28;20424;-60
2023/01/17 09:26:17;;;;;;;8.45;1.45;;;2.10;99.90;;;;;;5088005;28;20083;-60
2023/01/17 09:28:43;;;;;;;7.43;1.92;;;2.20;99.90;;;;;;5095794;28;20066;-58
2023/01/17 09:31:09;;;;;;;7.15;2.42;;;2.30;99.90;;;;;;5089683;28;20039;-61
2023/01/17 09:33:34;;;;;;;5.78;1.38;;;2.30;99.90;;;;;;5093038;28;20032;-58
2023/01/17 09:36:03;;;;;;;7.85;2.58;;;2.50;99.90;;;;;;5092974;28;20035;-59
2023/01/17 09:38:29;;;;;;;8.75;1.67;;;2.50;99.90;;;;;;5090530;28;20395;-59
2023/01/17 09:40:54;;;;;;;6.78;2.20;;;2.50;99.90;;;;;;5095971;28;20046;-61
2023/01/17 09:43:30;;;;;;;9.02;2.58;;;2.60;99.90;;;;;;5072209;28;20051;-63
2023/01/17 09:45:56;;;;;;;9.50;2.45;;;2.70;99.90;;;;;;5089722;28;20050;-59
2023/01/17 09:48:34;;;;;;;7.78;1.92;;;2.70;99.90;;;;;;5095767;28;20410;-60
2023/01/17 09:51:07;;;;;;;9.40;2.90;;;2.80;99.90;;;;;;5094269;28;20045;-60
2023/01/17 09:53:36;;;;;;;4.57;1.60;;;2.80;99.90;;;;;;5088611;28;20410;-59
2023/01/17 09:56:23;;;;;;;4.05;1.25;;;2.90;99.90;;;;;;5093021;28;20032;-58
2023/01/17 09:59:01;;;;;;;8.00;2.17;;;2.90;99.90;;;;;;5086625;28;20044;-61
2023/01/17 10:01:42;;;;;;;5.07;1.27;;;2.90;99.90;;;;;;5087669;28;20031;-61
2023/01/17 10:04:09;;;;;;;10.20;2.22;;;3.00;99.90;;;;;;5070092;28;20040;-64
2023/01/17 10:06:51;;;;;;;6.63;2.00;;;3.10;99.90;;;;;;5070897;28;20047;-61
2023/01/17 10:09:27;;;;;;;;;;;3.10;99.90;;;;;;5078088;28;20047;-60
2023/01/17 10:12:33;;;;;;;6.30;1.10;;;3.30;99.90;;;;;;5089199;28;19915;-61
2023/01/17 10:15:35;;;;;;;7.40;2.08;;;3.30;99.90;;;;;;5068744;28;20050;-61
2023/01/17 10:18:16;;;;;;;7.88;2.08;;;3.40;99.90;;;;;;5071231;28;20035;-61
2023/01/17 10:21:08;;;;;;;7.43;1.88;;;3.50;99.90;;;;;;5090202;28;20047;-62
2023/01/17 10:23:34;;;;;;;3.75;1.35;;;3.60;99.90;;;;;;5067347;28;20555;-62
2023/01/17 10:26:24;;;;;;;7.20;2.38;;;3.60;99.90;;;;;;5092549;28;20118;-61
2023/01/17 10:29:00;;;;;;;5.30;1.10;;;3.60;99.90;;;;;;5065440;28;20052;-61
2023/01/17 10:31:29;;;;;;;7.32;2.10;;;3.60;99.90;;;;;;5066045;28;20083;-61
2023/01/17 10:34:12;;;;;;;7.25;1.75;;;3.70;99.90;;;;;;5090932;28;20040;-61
2023/01/17 10:36:45;;;;;;;3.92;1.55;;;3.70;99.90;;;;;;5086338;28;20039;-62
2023/01/17 10:39:19;;;;;;;6.75;1.80;;;3.70;99.90;;;;;;5087202;28;20139;-61
2023/01/17 10:41:54;;;;;;;8.37;2.17;;;3.70;99.90;;;;;;5085624;28;20036;-62
2023/01/17 10:44:39;;;;;;;7.45;2.40;;;3.70;99.90;;;;;;5075051;28;20306;-61
2023/01/17 10:47:18;;;;;;;9.32;1.83;;;3.70;99.90;;;;;;5092087;28;20036;-61
2023/01/17 10:49:56;;;;;;;6.90;2.13;;;3.70;99.90;;;;;;5075124;28;20101;-60
2023/01/17 10:52:27;;;;;;;4.03;1.40;;;3.70;99.90;;;;;;5078338;28;20046;-61
2023/01/17 10:55:18;;;;;;;7.60;2.38;;;3.80;99.90;;;;;;5096188;28;20039;-60
2023/01/17 10:57:48;;;;;;;3.20;1.63;;;3.80;99.90;;;;;;5092657;28;20036;-60
2023/01/17 11:00:49;;;;;;;7.43;2.60;;;3.90;99.90;;;;;;5061919;28;20417;-60
2023/01/17 11:03:23;;;;;;;4.32;1.63;;;3.90;99.90;;;;;;5098581;28;20066;-61
2023/01/17 11:06:22;;;;;;;5.13;1.80;;;3.90;99.90;;;;;;5057209;28;20059;-62
2023/01/17 11:08:53;;;;;;;6.43;2.20;;;3.90;99.90;;;;;;5077555;28;20070;-61
2023/01/17 11:11:28;;;;;;;7.35;2.28;;;4.00;99.90;;;;;;5091343;28;20045;-62
2023/01/17 11:14:02;;;;;;;7.18;1.48;;;4.00;99.90;;;;;;5062910;28;20138;-61
2023/01/17 11:16:30;;;;;;;6.85;2.15;;;4.00;99.90;;;;;;5045405;28;20029;-61
2023/01/17 11:19:13;;;;;;;5.65;1.33;;;4.10;99.90;;;;;;5057295;28;20051;-60
2023/01/17 11:21:49;;;;;;;6.35;2.10;;;4.00;99.90;;;;;;5072221;28;20049;-61
2023/01/17 11:24:30;;;;;;;8.77;2.50;;;4.10;99.90;;;;;;5058776;28;20364;-60
2023/01/17 11:26:57;;;;;;;8.32;2.10;;;4.20;99.90;;;;;;5093789;28;20039;-60
2023/01/17 11:29:26;;;;;;;5.55;1.52;;;4.20;99.90;;;;;;5071345;28;20035;-61
2023/01/17 11:31:55;;;;;;;6.82;2.60;;;4.20;99.90;;;;;;5090059;28;20356;-61
2023/01/17 11:34:25;;;;;;;5.00;2.10;;;4.30;99.90;;;;;;5069290;28;20093;-60
2023/01/17 11:37:28;;;;;;;6.03;1.95;;;4.40;99.90;;;;;;5089444;28;20406;-59
2023/01/17 11:40:06;;;;;;;4.30;1.50;;;4.30;99.90;;;;;;5043066;28;20050;-60
2023/01/17 11:42:37;;;;;;;5.47;2.28;;;4.30;99.90;;;;;;5088543;28;20127;-60
2023/01/17 11:45:33;;;;;;;6.03;2.17;;;4.30;99.90;;;;;;5092545;28;20047;-60
2023/01/17 11:48:12;;;;;;;5.22;1.50;;;4.30;99.90;;;;;;5078680;28;20087;-61
2023/01/17 11:50:42;;;;;;;6.05;1.83;;;4.30;99.90;;;;;;5090516;28;20036;-60
2023/01/17 11:53:17;;;;;;;5.57;2.05;;;4.30;99.90;;;;;;5088336;28;20040;-62
2023/01/17 11:56:09;;;;;;;6.70;1.75;;;4.30;99.90;;;;;;5099371;28;20040;-60
2023/01/17 11:58:40;;;;;;;4.80;1.73;;;4.30;99.90;;;;;;5096789;28;20047;-61
2023/01/17 12:01:54;;;;;;;8.30;2.70;;;4.30;99.90;;;;;;5087221;28;20457;-61
2023/01/17 12:04:29;;;;;;;6.20;2.35;;;4.30;99.90;;;;;;4986356;28;20070;-60
2023/01/17 12:07:10;;;;;;;6.03;1.90;;;4.30;99.90;;;;;;5075293;28;20515;-61
2023/01/17 12:09:41;;;;;;;3.88;1.60;;;4.30;99.90;;;;;;5096097;28;20040;-61
2023/01/17 12:19:17;;;;;;;4.60;1.58;;;4.30;99.90;;;;;;5003189;28;20049;-57
2023/01/17 12:21:56;;;;;;;7.40;2.22;;;4.30;99.90;;;;;;5082892;28;20036;-56
2023/01/17 12:24:41;;;;;;;8.73;2.30;;;4.30;99.90;;;;;;5088040;28;20068;-58
2023/01/17 12:27:19;;;;;;;8.15;2.00;;;4.40;99.90;;;;;;5085778;28;20028;-57
2023/01/17 12:29:58;;;;;;;5.63;1.80;;;4.40;99.90;;;;;;5085964;28;20110;-59
2023/01/17 12:33:03;;;;;;;3.17;1.23;;;4.40;99.90;;;;;;5071507;28;20159;-61
2023/01/17 12:35:42;;;;;;;7.65;2.20;;;4.40;99.90;;;;;;5064337;28;20033;-59
2023/01/17 12:38:17;;;;;;;3.63;1.10;;;4.50;99.90;;;;;;5045599;28;20036;-60
2023/01/17 12:40:59;;;;;;;7.70;2.10;;;4.50;99.90;;;;;;5068448;28;20480;-59
2023/01/17 12:43:38;;;;;;;5.55;1.45;;;4.50;99.90;;;;;;5081745;28;20086;-60
2023/01/17 12:46:12;;;;;;;4.60;1.30;;;4.40;99.90;;;;;;5082767;28;20488;-61
2023/01/17 12:48:38;;;;;;;5.55;1.77;;;4.40;99.90;;;;;;5087909;28;20050;-61
2023/01/17 12:51:17;;;;;;;7.00;2.10;;;4.50;99.90;;;;;;5081080;28;20143;-60
2023/01/17 12:54:10;;;;;;;4.70;1.80;;;4.40;99.90;;;;;;5090548;28;20031;-61
2023/01/17 12:56:41;;;;;;;6.70;2.22;;;4.50;99.90;;;;;;5089276;28;20082;-62
2023/01/17 12:59:48;;;;;;;3.97;1.08;;;4.40;99.90;;;;;;5085992;28;20062;-61
2023/01/17 13:02:30;;;;;;;7.72;1.80;;;4.40;99.90;;;;;;5085996;28;20075;-60
2023/01/17 13:05:04;;;;;;;6.45;1.15;;;4.40;99.90;;;;;;5090398;28;20035;-61
2023/01/17 13:07:39;;;;;;;4.47;1.92;;;4.40;99.90;;;;;;5085036;28;20083;-62
2023/01/17 13:10:42;;;;;;;5.25;1.85;;;4.50;99.90;;;;;;5085442;28;20039;-60
2023/01/17 13:13:23;;;;;;;3.60;1.33;;;4.40;99.90;;;;;;5084499;28;20027;-59
2023/01/17 13:15:59;;;;;;;4.75;1.55;;;4.40;99.90;;;;;;5086683;28;20039;-63
2023/01/17 13:18:32;;;;;;;2.85;1.23;;;4.30;99.90;;;;;;5035649;28;20166;-60
2023/01/17 13:21:29;;;;;;;5.50;1.77;;;4.30;99.90;;;;;;5057270;28;20423;-61
2023/01/17 13:23:57;;;;;;;6.80;1.98;;;4.30;99.90;;;;;;5088803;28;20472;-60
2023/01/17 13:27:04;;;;;;;6.80;1.05;;;4.30;99.90;;;;;;5072769;28;20046;-61
2023/01/17 13:29:45;;;;;;;2.80;1.20;;;4.30;99.90;;;;;;5068798;28;20464;-60
2023/01/17 13:32:40;;;;;;;4.85;1.58;;;4.30;99.90;;;;;;5089184;28;20342;-58
2023/01/17 13:35:18;;;;;;;5.57;2.28;;;4.30;99.90;;;;;;5089718;28;20028;-61
2023/01/17 13:38:02;;;;;;;3.05;1.30;;;4.30;99.90;;;;;;5087842;28;20040;-58
2023/01/17 13:40:33;;;;;;;4.30;1.90;;;4.30;99.90;;;;;;5090149;28;20040;-57
2023/01/17 13:43:04;;;;;;;4.03;1.80;;;4.30;99.90;;;;;;5071842;28;20145;-61
2023/01/17 13:45:35;;;;;;;4.88;1.65;;;4.30;99.90;;;;;;5072390;28;20054;-61
2023/01/17 13:48:11;;;;;;;3.72;1.38;;;4.40;99.90;;;;;;5071433;28;20134;-62
2023/01/17 13:50:39;;;;;;;4.78;1.63;;;4.50;99.90;;;;;;5092565;28;20040;-60
2023/01/17 13:53:33;;;;;;;8.10;1.77;;;4.50;99.90;;;;;;5085688;28;20110;-61
2023/01/17 13:56:12;;;;;;;5.25;2.72;;;4.50;99.90;;;;;;5091672;28;20055;-61
2023/01/17 13:58:59;;;;;;;5.53;1.85;;;4.50;99.90;;;;;;5088672;28;20471;-61
2023/01/17 14:01:30;;;;;;;4.30;1.67;;;4.50;99.90;;;;;;5088300;28;20032;-61
2023/01/17 14:04:07;;;;;;;5.70;1.77;;;4.50;99.90;;;;;;5075868;28;20074;-60
2023/01/17 14:06:43;;;;;;;6.57;2.10;;;4.60;99.90;;;;;;5076810;28;20032;-60
2023/01/17 14:09:17;;;;;;;6.75;1.40;;;4.60;99.90;;;;;;5091142;28;20371;-61
2023/01/17 14:11:55;;;;;;;5.50;2.22;;;4.70;99.90;;;;;;5089792;28;20066;-63
2023/01/17 14:14:47;;;;;;;4.75;1.90;;;4.70;99.90;;;;;;5095589;28;20032;-61
2023/01/17 14:17:24;;;;;;;7.93;1.60;;;4.70;99.90;;;;;;5092727;28;20051;-61
2023/01/17 14:20:14;;;;;;;8.07;1.65;;;4.60;99.90;;;;;;5087571;28;20059;-61
2023/01/17 14:22:53;;;;;;;8.00;2.30;;;4.60;99.90;;;;;;5053054;28;20067;-60
2023/01/17 14:25:26;;;;;;;4.07;1.30;;;4.50;99.90;;;;;;5098379;28;20066;-61
2023/01/17 14:27:55;;;;;;;5.60;1.88;;;4.50;99.90;;;;;;5091166;28;20364;-61
2023/01/17 14:30:28;;;;;;;3.88;1.05;;;4.50;99.90;;;;;;5104009;28;20040;-62
2023/01/17 14:33:00;;;;;;;6.30;2.20;;;4.50;99.90;;;;;;5091842;28;20035;-63
2023/01/17 14:35:33;;;;;;;4.13;1.55;;;4.50;99.90;;;;;;5094479;28;20045;-62
2023/01/17 14:38:04;;;;;;;5.55;2.00;;;4.50;99.90;;;;;;5061412;28;20043;-61
2023/01/17 14:40:48;;;;;;;5.72;2.15;;;4.50;99.90;;;;;;5100272;28;20051;-62
2023/01/17 14:43:19;;;;;;;4.13;1.80;;;4.40;99.90;;;;;;5060404;28;20040;-61
2023/01/17 14:45:45;;;;;;;3.58;1.40;;;4.40;99.90;;;;;;5090806;28;20137;-61
2023/01/17 14:48:21;;;;;;;5.47;2.28;;;4.40;99.90;;;;;;5100073;28;20473;-60
2023/01/17 14:50:50;;;;;;;4.70;1.65;;;4.30;99.90;;;;;;5087287;28;20771;-60
2023/01/17 14:53:20;;;;;;;4.53;1.95;;;4.30;99.90;;;;;;5091471;28;20035;-61
2023/01/17 14:56:11;;;;;;;4.38;1.52;;;4.20;99.90;;;;;;5093651;28;20036;-65